Time;durP1;ratioP1;P1;durP2;ratioP2;P2;SDS_P1;SDS_P2;PMS_P1;PMS_P2;Temp;Humidity;BMP_temperature;BMP_pressure;BME280_temperature;BME280_humidity;BME280_pressure;Samples;Min_cycle;Max_cycle;Signal;HPM_P1;HPM_P2
2021/12/11 00:02:12;;;;;;;15.95;6.00;;;;;;;-17.29;87.72;101326.84;4953177;29;20451;-65
2021/12/11 00:04:42;;;;;;;13.82;5.80;;;;;;;-17.43;87.60;101297.00;4954992;28;20059;-65
2021/12/11 00:07:11;;;;;;;14.57;4.65;;;;;;;-17.30;87.66;101314.72;4937294;29;20047;-66
2021/12/11 00:09:42;;;;;;;16.23;5.38;;;;;;;-17.10;87.63;101343.09;4954326;29;20055;-66
2021/12/11 00:12:15;;;;;;;21.63;8.65;;;;;;;-17.20;87.78;101346.13;4954397;29;20484;-65
2021/12/11 00:14:47;;;;;;;16.27;5.78;;;;;;;-17.28;87.81;101335.50;4954483;29;20039;-65
2021/12/11 00:17:25;;;;;;;17.17;6.22;;;;;;;-17.21;87.87;101359.88;4953036;29;20057;-65
2021/12/11 00:19:50;;;;;;;;;;;;;;;-17.30;87.93;101366.41;4953270;28;20050;-66
2021/12/11 00:22:19;;;;;;;28.10;4.15;;;;;;;-17.30;87.65;101371.59;4936116;29;19926;-66
2021/12/11 00:24:45;;;;;;;20.17;7.00;;;;;;;-17.36;87.08;101361.03;4937040;29;20051;-65
2021/12/11 00:27:18;;;;;;;2.70;1.20;;;;;;;-17.21;86.87;101368.50;4936794;29;20466;-65
2021/12/11 00:29:44;;;;;;;8.32;3.42;;;;;;;-17.27;86.90;101361.38;4954266;28;20042;-66
2021/12/11 00:32:13;;;;;;;9.82;3.08;;;;;;;-17.40;87.05;101328.13;4936575;29;20062;-65
2021/12/11 00:34:43;;;;;;;5.97;1.90;;;;;;;-17.60;86.51;101287.66;4936474;28;20119;-66
2021/12/11 00:37:12;;;;;;;13.32;3.67;;;;;;;-17.27;86.50;101363.97;4936472;29;20188;-65
2021/12/11 00:39:57;;;;;;;16.38;6.30;;;;;;;-17.48;86.99;101350.16;4938172;28;20419;-65
2021/12/11 00:42:30;;;;;;;8.68;3.47;;;;;;;-17.38;87.16;101357.47;4953271;28;20077;-65
2021/12/11 00:44:56;;;;;;;9.30;4.22;;;;;;;-17.40;87.24;101358.22;4952147;29;20046;-65
2021/12/11 00:47:30;;;;;;;17.38;5.68;;;;;;;-17.50;87.20;101351.81;4952564;29;20129;-66
2021/12/11 00:50:02;;;;;;;11.95;4.00;;;;;;;-17.49;86.96;101347.53;4952110;29;20562;-66
2021/12/11 00:52:33;;;;;;;9.80;3.75;;;;;;;-17.64;86.78;101325.41;4936355;29;20058;-64
2021/12/11 00:54:59;;;;;;;10.35;2.75;;;;;;;-17.48;86.88;101354.44;4920385;29;20404;-66
2021/12/11 00:57:25;;;;;;;14.43;4.22;;;;;;;-17.49;86.60;101355.28;4952938;28;20050;-66
2021/12/11 01:00:00;;;;;;;9.43;3.72;;;;;;;-17.49;86.02;101348.41;4936253;29;20055;-66
2021/12/11 01:02:25;;;;;;;9.40;4.38;;;;;;;-17.47;86.07;101351.94;4936190;29;20059;-66
2021/12/11 01:04:51;;;;;;;10.00;3.92;;;;;;;-17.45;86.10;101355.44;4953157;28;20134;-65
2021/12/11 01:07:21;;;;;;;8.70;2.00;;;;;;;-17.50;86.10;101351.81;4947947;29;20060;-65
2021/12/11 01:09:58;;;;;;;7.53;2.70;;;;;;;-17.55;86.40;101354.22;4948659;29;20086;-65
2021/12/11 01:12:42;;;;;;;3.45;1.08;;;;;;;-17.86;86.76;101300.41;4933901;29;20075;-65
2021/12/11 01:15:19;;;;;;;12.98;4.70;;;;;;;-17.62;86.52;101356.44;4934939;29;20051;-65
2021/12/11 01:18:03;;;;;;;14.43;4.88;;;;;;;-17.61;85.91;101359.09;4936182;29;20512;-67
2021/12/11 01:20:45;;;;;;;9.80;3.67;;;;;;;-17.69;86.32;101352.75;4936367;29;20452;-67
2021/12/11 01:23:26;;;;;;;10.95;3.53;;;;;;;-17.70;87.07;101352.66;4919028;29;20063;-66
2021/12/11 01:25:52;;;;;;;10.05;3.92;;;;;;;-18.01;86.67;101297.19;4923209;29;20051;-65
2021/12/11 01:28:19;;;;;;;8.07;2.60;;;;;;;-17.78;86.91;101358.41;4903005;29;20054;-66
2021/12/11 01:30:45;;;;;;;9.73;3.63;;;;;;;-17.66;86.66;101365.75;4901788;29;20050;-65
2021/12/11 01:33:12;;;;;;;16.70;4.53;;;;;;;-17.70;86.31;101368.16;4933618;29;20138;-66
2021/12/11 01:35:38;;;;;;;4.80;1.73;;;;;;;-17.73;86.36;101368.00;4934287;29;20088;-66
2021/12/11 01:38:08;;;;;;;13.00;4.65;;;;;;;-17.73;85.53;101375.75;4901458;29;20054;-65
2021/12/11 01:40:35;;;;;;;15.90;4.50;;;;;;;-17.72;85.66;101369.81;4916343;29;20047;-65
2021/12/11 01:43:03;;;;;;;4.00;1.63;;;;;;;-17.86;85.79;101346.88;4900756;29;20056;-66
2021/12/11 01:45:30;;;;;;;9.15;3.13;;;;;;;-17.66;85.61;101375.22;4933363;29;20071;-65
2021/12/11 01:47:55;;;;;;;8.23;2.22;;;;;;;-17.95;85.35;101336.13;4900657;29;20567;-65
2021/12/11 01:50:33;;;;;;;8.20;3.30;;;;;;;-17.71;85.00;101371.56;4900273;29;20058;-64
2021/12/11 01:53:03;;;;;;;11.95;3.35;;;;;;;-17.79;85.63;101366.97;4933695;29;20051;-66
2021/12/11 01:55:37;;;;;;;13.93;4.53;;;;;;;-17.82;85.23;101368.56;4915928;29;20441;-67
2021/12/11 01:58:06;;;;;;;9.55;3.80;;;;;;;-18.05;85.52;101334.88;4916433;29;20126;-65
2021/12/11 02:00:39;;;;;;;7.40;2.70;;;;;;;-17.75;85.80;101369.69;4900065;29;20090;-65
2021/12/11 02:03:10;;;;;;;14.00;4.75;;;;;;;-17.86;85.75;101367.53;4916236;29;20047;-65
2021/12/11 02:05:37;;;;;;;11.93;4.65;;;;;;;-18.03;85.42;101347.84;4933084;29;20159;-66
2021/12/11 02:08:07;;;;;;;11.38;4.30;;;;;;;-17.88;85.49;101369.16;4933101;29;20059;-66
2021/12/11 02:10:40;;;;;;;14.85;5.82;;;;;;;-17.96;86.29;101365.38;4915030;29;20047;-65
2021/12/11 02:13:09;;;;;;;14.02;4.30;;;;;;;-17.86;86.27;101377.84;4933227;29;20055;-65
2021/12/11 02:15:41;;;;;;;13.93;3.90;;;;;;;-17.92;85.61;101371.53;4933135;29;20047;-66
2021/12/11 02:18:14;;;;;;;16.95;5.40;;;;;;;-17.96;85.59;101364.47;4933334;29;20146;-65
2021/12/11 02:20:51;;;;;;;5.22;2.25;;;;;;;-18.12;86.05;101338.00;4899897;29;20040;-65
2021/12/11 02:23:17;;;;;;;9.73;3.92;;;;;;;-17.87;86.15;101370.94;4933544;29;20083;-66
2021/12/11 02:25:46;;;;;;;16.30;3.78;;;;;;;-17.99;86.10;101370.38;4933029;29;20126;-65
2021/12/11 02:28:27;;;;;;;14.75;5.22;;;;;;;-18.07;85.73;101356.25;4932836;29;20055;-66
2021/12/11 02:31:16;;;;;;;9.90;3.03;;;;;;;-17.92;85.74;101390.50;4933254;29;20052;-66
2021/12/11 02:33:49;;;;;;;5.07;1.75;;;;;;;-17.86;85.37;101393.34;4915610;29;20411;-66
2021/12/11 02:36:22;;;;;;;5.07;1.95;;;;;;;-17.90;85.21;101396.63;4915626;29;20043;-66
2021/12/11 02:38:50;;;;;;;13.77;3.70;;;;;;;-17.91;84.97;101402.59;4916122;29;20048;-66
2021/12/11 02:41:17;;;;;;;13.15;5.05;;;;;;;-18.00;84.96;101378.94;4915501;29;20056;-64
2021/12/11 02:43:54;;;;;;;8.45;3.40;;;;;;;-17.84;85.45;101399.47;4932843;29;20047;-64
2021/12/11 02:46:31;;;;;;;3.22;1.35;;;;;;;-17.83;85.50;101398.66;4900298;29;20130;-66
2021/12/11 02:49:15;;;;;;;13.00;4.22;;;;;;;-17.93;85.16;101386.16;4931586;29;20056;-66
2021/12/11 02:51:52;;;;;;;10.32;1.98;;;;;;;-18.03;85.09;101378.81;4932496;29;20091;-65
2021/12/11 02:54:29;;;;;;;16.58;2.88;;;;;;;-18.01;85.21;101382.34;4915650;29;20054;-66
2021/12/11 02:56:59;;;;;;;10.30;3.17;;;;;;;-18.19;85.42;101360.91;4932401;29;20048;-65
2021/12/11 02:59:28;;;;;;;11.90;4.15;;;;;;;-18.09;85.80;101373.41;4915429;29;20047;-65
2021/12/11 03:02:17;;;;;;;20.98;5.45;;;;;;;-18.15;85.67;101362.78;4932837;29;20047;-66
2021/12/11 03:04:50;;;;;;;8.65;2.90;;;;;;;-18.18;85.18;101371.28;4932270;29;20545;-66
2021/12/11 03:07:20;;;;;;;8.30;2.10;;;;;;;-18.14;85.47;101369.72;4916612;29;20072;-65
2021/12/11 03:09:52;;;;;;;4.53;1.75;;;;;;;-18.11;85.11;101367.28;4915552;29;20050;-66
2021/12/11 03:12:18;;;;;;;9.25;3.58;;;;;;;-18.01;85.29;101372.91;4899909;29;20052;-66
2021/12/11 03:14:44;;;;;;;5.30;1.98;;;;;;;-18.06;85.04;101376.09;4932711;29;20079;-65
2021/12/11 03:17:10;;;;;;;6.75;2.10;;;;;;;-18.07;84.79;101371.75;4915500;29;20148;-65
2021/12/11 03:19:40;;;;;;;13.65;4.22;;;;;;;-18.04;84.90;101377.94;4935281;29;20076;-65
2021/12/11 03:22:09;;;;;;;7.30;2.38;;;;;;;-18.00;85.21;101384.13;4934728;29;20151;-65
2021/12/11 03:24:36;;;;;;;9.95;1.55;;;;;;;-17.95;84.66;101377.44;4935875;29;20052;-66
2021/12/11 03:27:03;;;;;;;14.25;3.95;;;;;;;-17.94;84.52;101389.56;4919464;29;20079;-67
2021/12/11 03:29:29;;;;;;;2.00;0.80;;;;;;;-17.88;84.77;101394.97;4920119;29;20491;-65
2021/12/11 03:31:55;;;;;;;7.05;2.85;;;;;;;-17.89;84.25;101392.34;4935981;29;20074;-66
2021/12/11 03:34:23;;;;;;;10.55;3.90;;;;;;;-17.89;84.59;101393.22;4936130;29;20063;-66
2021/12/11 03:36:49;;;;;;;12.77;4.00;;;;;;;-17.88;84.30;101391.50;4918822;29;20047;-63
2021/12/11 03:39:28;;;;;;;6.63;2.53;;;;;;;-17.92;84.56;101397.34;4935439;29;20052;-66
2021/12/11 03:41:56;;;;;;;7.68;2.05;;;;;;;-17.91;84.79;101394.84;4918955;29;20055;-65
2021/12/11 03:44:22;;;;;;;8.48;2.45;;;;;;;-18.03;84.57;101378.81;4936725;29;20063;-67
2021/12/11 03:46:53;;;;;;;4.57;1.83;;;;;;;-18.00;84.20;101384.13;4918559;29;20048;-67
2021/12/11 03:49:20;;;;;;;35.00;3.38;;;;;;;-17.95;84.68;101381.72;4918924;29;20127;-67
2021/12/11 03:51:47;;;;;;;9.32;3.92;;;;;;;-17.92;84.62;101393.06;4918909;29;20183;-68
2021/12/11 03:54:17;;;;;;;18.38;6.28;;;;;;;-18.02;84.32;101383.19;4938477;29;20047;-68
2021/12/11 03:56:43;;;;;;;6.13;2.97;;;;;;;-18.07;84.97;101387.25;4936876;29;20039;-68
2021/12/11 03:59:11;;;;;;;14.35;5.43;;;;;;;-18.09;85.08;101373.41;4903281;29;20527;-67
2021/12/11 04:01:43;;;;;;;13.57;6.13;;;;;;;-18.10;85.32;101379.34;4902980;29;20055;-67
2021/12/11 04:04:18;;;;;;;18.63;5.45;;;;;;;-18.13;85.07;101381.78;4936066;29;20055;-68
2021/12/11 04:06:45;;;;;;;14.73;5.03;;;;;;;-18.10;85.17;101366.44;4919088;29;20047;-67
2021/12/11 04:09:12;;;;;;;17.27;5.60;;;;;;;-18.18;85.19;101365.25;4893598;29;20149;-65
2021/12/11 04:11:39;;;;;;;8.02;3.47;;;;;;;-18.19;84.71;101355.75;4953636;29;20039;-65
2021/12/11 04:14:12;;;;;;;28.95;6.40;;;;;;;-18.23;84.87;101361.59;4937852;29;20137;-66
2021/12/11 04:16:38;;;;;;;11.80;4.93;;;;;;;-18.29;84.84;101355.31;4937224;29;20130;-66
2021/12/11 04:19:05;;;;;;;12.00;4.53;;;;;;;-18.20;84.94;101359.13;4955916;28;20069;-67
2021/12/11 04:21:32;;;;;;;15.60;6.32;;;;;;;-18.19;84.53;101355.75;4954473;28;20055;-65
2021/12/11 04:23:58;;;;;;;10.82;4.03;;;;;;;-18.21;84.51;101357.34;4937981;28;20055;-66
2021/12/11 04:26:24;;;;;;;13.73;4.78;;;;;;;-18.62;84.77;101302.22;4954727;28;20053;-66
2021/12/11 04:28:50;;;;;;;9.63;3.35;;;;;;;-18.21;85.01;101362.50;4953606;28;20387;-68
2021/12/11 04:31:22;;;;;;;15.02;4.97;;;;;;;-18.22;84.94;101355.59;4954001;29;20051;-67
2021/12/11 04:33:52;;;;;;;9.63;4.05;;;;;;;-18.54;85.13;101311.19;4955201;28;20106;-67
2021/12/11 04:36:22;;;;;;;3.35;1.55;;;;;;;-18.22;84.66;101350.44;4932557;29;20490;-68
2021/12/11 04:38:50;;;;;;;15.25;4.20;;;;;;;-18.36;85.05;101335.22;4936407;29;20122;-68
2021/12/11 04:41:21;;;;;;;17.83;5.65;;;;;;;-18.19;84.86;101360.91;4937662;29;20079;-67
2021/12/11 04:43:50;;;;;;;13.95;4.35;;;;;;;-18.26;85.09;101358.03;4952442;29;20384;-66
2021/12/11 04:46:16;;;;;;;7.78;2.83;;;;;;;-18.21;85.38;101352.19;4937547;29;20043;-66
2021/12/11 04:48:58;;;;;;;13.52;4.93;;;;;;;-18.23;85.23;101359.00;4937504;29;20077;-68
2021/12/11 04:59:31;;;;;;;5.80;1.63;;;;;;;-18.17;84.87;101364.41;4952209;29;20054;-66
2021/12/11 05:10:14;;;;;;;13.25;4.40;;;;;;;-18.17;83.57;101374.72;4952845;29;20062;-66
2021/12/11 05:12:40;;;;;;;4.00;1.77;;;;;;;-18.43;83.47;101340.91;4936897;29;20082;-66
2021/12/11 05:15:18;;;;;;;8.20;2.58;;;;;;;-18.20;83.71;101385.81;4936488;29;20470;-66
2021/12/11 05:17:44;;;;;;;2.42;1.67;;;;;;;-18.16;83.83;101381.69;4952835;29;20050;-67
2021/12/11 05:20:12;;;;;;;5.35;1.88;;;;;;;-18.19;83.26;101378.97;4952739;29;20047;-65
2021/12/11 05:22:38;;;;;;;12.82;4.35;;;;;;;-18.25;83.60;101372.69;4920038;29;20046;-66
2021/12/11 05:25:05;;;;;;;14.00;6.03;;;;;;;-18.21;83.74;101362.50;4951484;29;20051;-66
2021/12/11 05:27:31;;;;;;;13.30;4.32;;;;;;;-18.18;83.79;101367.81;4951575;29;20047;-66
2021/12/11 05:29:57;;;;;;;2.22;0.80;;;;;;;-18.06;83.72;101356.34;4951618;29;20130;-66
2021/12/11 05:32:25;;;;;;;19.88;5.40;;;;;;;-18.08;83.46;101360.56;4929938;29;20531;-69
2021/12/11 05:34:51;;;;;;;10.63;4.22;;;;;;;-18.26;84.08;101323.63;4951622;28;20130;-72
2021/12/11 05:37:17;;;;;;;13.45;5.45;;;;;;;-18.17;83.65;101338.59;4932571;29;20067;-64
2021/12/11 05:39:44;;;;;;;14.68;5.40;;;;;;;-18.05;83.15;101364.97;4932474;29;20166;-65
2021/12/11 05:42:10;;;;;;;18.52;6.05;;;;;;;-18.13;83.23;101356.91;4933843;29;20058;-74
2021/12/11 05:44:39;;;;;;;15.90;5.13;;;;;;;-18.18;83.98;101347.16;4933635;28;20149;-65
2021/12/11 05:47:06;;;;;;;19.63;4.68;;;;;;;-18.20;84.27;101333.34;4924490;29;20051;-66
2021/12/11 05:49:33;;;;;;;24.13;6.65;;;;;;;-18.05;83.63;101367.56;4921048;28;20149;-66
2021/12/11 05:52:00;;;;;;;10.77;4.10;;;;;;;-18.05;83.47;101355.53;4941413;29;20523;-72
2021/12/11 05:54:27;;;;;;;8.98;2.75;;;;;;;-17.96;83.42;101347.28;4943340;28;20040;-66
2021/12/11 05:56:59;;;;;;;7.03;4.35;;;;;;;-17.88;83.15;101364.00;4941400;28;20076;-70
2021/12/11 05:59:26;;;;;;;11.57;4.03;;;;;;;-17.86;83.09;101361.50;4929715;29;20046;-66
2021/12/11 06:01:57;;;;;;;14.38;4.53;;;;;;;-17.87;83.20;101365.78;4917844;29;20059;-66
2021/12/11 06:04:26;;;;;;;17.95;5.50;;;;;;;-17.89;82.68;101359.66;4921103;29;20051;-65
2021/12/11 06:06:54;;;;;;;13.40;4.70;;;;;;;-17.80;82.48;101357.47;4919610;29;20134;-65
2021/12/11 06:09:21;;;;;;;15.75;5.40;;;;;;;-17.89;82.01;101349.31;4903942;29;20137;-66
2021/12/11 06:11:50;;;;;;;4.93;2.33;;;;;;;-17.78;81.87;101370.44;4942745;29;20059;-68
2021/12/11 06:14:17;;;;;;;10.50;4.45;;;;;;;-17.63;81.60;101370.19;4908944;29;20043;-66
2021/12/11 06:16:45;;;;;;;16.73;5.93;;;;;;;-17.53;81.06;101367.19;4913647;29;20055;-65
2021/12/11 06:19:11;;;;;;;5.10;1.42;;;;;;;-17.41;80.95;101382.31;4937823;28;20107;-71
2021/12/11 06:21:38;;;;;;;5.47;1.90;;;;;;;-17.44;80.69;101364.97;4924803;29;20158;-69
2021/12/11 06:24:05;;;;;;;16.42;5.13;;;;;;;-17.29;80.74;101381.13;4907941;29;20058;-70
2021/12/11 06:26:31;;;;;;;11.70;3.72;;;;;;;-17.24;80.24;101393.34;4905394;29;20510;-64
2021/12/11 06:28:58;;;;;;;12.20;4.30;;;;;;;-17.25;79.49;101388.97;4920942;29;20428;-65
2021/12/11 06:31:24;;;;;;;10.95;4.93;;;;;;;-17.24;79.18;101396.81;4910704;28;20151;-73
2021/12/11 06:33:53;;;;;;;16.98;6.07;;;;;;;-17.18;79.86;101396.16;4922668;29;20051;-69
2021/12/11 06:36:21;;;;;;;11.48;5.50;;;;;;;-17.49;79.02;101338.06;4933529;28;20416;-66
2021/12/11 06:38:52;;;;;;;13.63;3.33;;;;;;;-17.06;79.15;101396.69;4937836;28;20131;-66
2021/12/11 06:41:21;;;;;;;9.40;3.03;;;;;;;-17.11;79.19;101377.50;4938944;28;20159;-67
2021/12/11 06:43:49;;;;;;;4.65;2.90;;;;;;;-17.05;78.72;101388.09;4920671;28;20130;-66
2021/12/11 06:46:20;;;;;;;15.15;4.95;;;;;;;-17.23;78.81;101356.34;4922111;29;20051;-67
2021/12/11 06:48:55;;;;;;;17.42;6.15;;;;;;;-16.97;78.83;101371.19;4903351;29;20043;-66
2021/12/11 06:51:21;;;;;;;13.68;4.28;;;;;;;-16.86;79.04;101385.44;4922716;28;20083;-65
2021/12/11 06:53:52;;;;;;;7.93;3.47;;;;;;;-16.75;78.03;101387.56;4891258;29;20063;-67
2021/12/11 06:56:19;;;;;;;;;;;;;;;-16.63;78.25;101398.38;4889885;29;20132;-67
2021/12/11 06:58:45;;;;;;;12.82;5.18;;;;;;;-16.68;78.27;101374.00;4925009;29;19930;-64
2021/12/11 07:01:14;;;;;;;21.75;5.28;;;;;;;-16.52;77.46;101376.38;4906443;29;20054;-68
2021/12/11 07:03:40;;;;;;;20.50;6.32;;;;;;;-16.59;77.67;101362.31;4904903;29;20040;-65
2021/12/11 07:06:08;;;;;;;12.05;4.65;;;;;;;-16.40;76.99;101381.13;4891193;29;20054;-66
2021/12/11 07:08:36;;;;;;;20.02;7.03;;;;;;;-16.43;76.30;101356.00;4904619;29;20048;-66
2021/12/11 07:11:03;;;;;;;6.70;2.67;;;;;;;-16.45;77.49;101368.03;4888571;29;20055;-67
2021/12/11 07:13:28;;;;;;;14.85;5.05;;;;;;;-16.32;76.31;101365.06;4909085;29;20044;-65
2021/12/11 07:15:56;;;;;;;19.85;5.65;;;;;;;-16.22;76.22;101365.41;4890901;29;20055;-66
2021/12/11 07:18:23;;;;;;;12.00;3.45;;;;;;;-16.01;76.04;101376.56;4886253;29;20051;-66
2021/12/11 07:20:50;;;;;;;6.32;2.80;;;;;;;-15.99;76.17;101382.66;4920033;29;20042;-66
2021/12/11 07:23:16;;;;;;;14.85;5.55;;;;;;;-16.15;75.61;101351.88;4905689;29;20576;-67
2021/12/11 07:25:59;;;;;;;9.75;3.47;;;;;;;-15.99;75.48;101385.25;4889229;29;20615;-66
2021/12/11 07:28:26;;;;;;;17.38;5.78;;;;;;;-15.78;75.88;101400.69;4908959;29;20051;-66
2021/12/11 07:30:53;;;;;;;14.32;5.43;;;;;;;-15.77;75.75;101376.56;4906592;29;20054;-66
2021/12/11 07:33:20;;;;;;;9.60;3.78;;;;;;;-15.78;75.34;101359.25;4890423;29;20065;-70
2021/12/11 07:35:50;;;;;;;19.33;6.22;;;;;;;-15.78;74.70;101353.19;4875771;29;20496;-68
2021/12/11 07:38:17;;;;;;;17.48;7.35;;;;;;;-15.37;74.42;101404.69;4923286;29;20083;-70
2021/12/11 07:40:54;;;;;;;22.45;8.48;;;;;;;-15.60;74.24;101317.50;4909795;29;20320;-73
2021/12/11 07:43:23;;;;;;;19.80;8.18;;;;;;;-14.99;73.22;101386.94;4925180;29;20044;-69
2021/12/11 07:45:49;;;;;;;10.13;3.83;;;;;;;-15.01;72.45;101361.81;4893336;29;20059;-66
2021/12/11 07:48:15;;;;;;;13.98;5.05;;;;;;;-14.54;71.74;101389.25;4893010;29;20055;-66
2021/12/11 07:50:41;;;;;;;7.25;2.97;;;;;;;-14.32;70.77;101402.84;4894034;29;20063;-67
2021/12/11 07:53:07;;;;;;;13.20;4.78;;;;;;;-14.11;69.45;101393.09;4927209;29;20046;-65
2021/12/11 07:55:33;;;;;;;10.85;4.35;;;;;;;-14.09;69.33;101396.63;4908204;29;20044;-66
2021/12/11 07:58:00;;;;;;;21.88;8.95;;;;;;;-13.92;69.23;101390.19;4903825;29;20156;-65
2021/12/11 08:00:27;;;;;;;6.55;2.92;;;;;;;-13.77;68.05;101383.66;4888105;29;20052;-67
2021/12/11 08:02:54;;;;;;;23.05;7.70;;;;;;;-13.19;66.53;101390.41;4905632;29;20055;-66
2021/12/11 08:05:24;;;;;;;26.52;9.73;;;;;;;-12.64;64.84;101397.84;4888934;29;20040;-66
2021/12/11 08:07:50;;;;;;;17.42;6.05;;;;;;;-12.33;62.98;101405.47;4920042;29;20516;-66
2021/12/11 08:10:19;;;;;;;14.68;6.88;;;;;;;-11.84;61.98;101399.59;4906428;29;20066;-65
2021/12/11 08:12:46;;;;;;;20.83;6.45;;;;;;;-11.79;60.86;101357.94;4902162;29;20134;-65
2021/12/11 08:15:13;;;;;;;21.27;7.53;;;;;;;-11.46;59.40;101366.38;4927398;29;20079;-65
2021/12/11 08:17:39;;;;;;;31.35;11.32;;;;;;;-11.11;59.03;101384.41;4902726;29;20376;-65
2021/12/11 08:20:07;;;;;;;24.83;9.13;;;;;;;-11.35;58.35;101334.38;4907717;29;20036;-65
2021/12/11 08:22:33;;;;;;;19.60;6.93;;;;;;;-10.84;57.60;101383.13;4922503;29;20226;-66
2021/12/11 08:24:59;;;;;;;34.20;12.00;;;;;;;-10.83;56.65;101379.66;4890634;29;20198;-65
2021/12/11 08:27:27;;;;;;;17.25;6.30;;;;;;;-11.05;57.44;101345.34;4908066;29;20143;-65
2021/12/11 08:29:53;;;;;;;31.67;8.70;;;;;;;-10.83;57.44;101374.41;4905246;29;20079;-66
2021/12/11 08:32:21;;;;;;;29.17;12.43;;;;;;;-10.48;56.53;101381.06;4907267;29;20123;-74
2021/12/11 08:34:50;;;;;;;32.03;12.20;;;;;;;-10.29;55.21;101356.06;4929716;29;20047;-74
2021/12/11 08:46:57;;;;;;;18.27;8.35;;;;;;;-8.78;48.93;101340.19;4808873;29;20046;-76
2021/12/11 08:49:29;;;;;;;18.10;7.72;;;;;;;-8.95;49.33;101294.66;4819530;29;20066;-78
2021/12/11 08:52:02;;;;;;;24.65;10.27;;;;;;;-8.65;49.51;101278.25;4816060;29;20039;-79
2021/12/11 08:54:30;;;;;;;21.73;7.40;;;;;;;-8.14;48.18;101361.53;5153538;24;20126;-70
2021/12/11 08:57:00;;;;;;;28.42;8.23;;;;;;;-8.37;48.96;101337.81;4791775;29;20048;-72
2021/12/11 09:05:45;;;;;;;18.95;6.95;;;;;;;-7.71;46.95;101350.34;5425868;24;20768;-74
2021/12/11 09:08:21;;;;;;;19.50;8.20;;;;;;;-6.84;45.27;101350.50;4845499;29;20062;-76
2021/12/11 09:10:58;;;;;;;16.73;6.70;;;;;;;-6.41;44.32;101342.56;4834372;29;20073;-73
2021/12/11 09:13:38;;;;;;;17.98;7.78;;;;;;;-5.79;42.35;101349.38;4819312;29;20054;-71
2021/12/11 09:16:28;;;;;;;26.70;8.52;;;;;;;-5.73;42.78;101344.06;4835137;29;20050;-70
2021/12/11 09:19:15;;;;;;;21.55;8.85;;;;;;;-5.98;42.77;101353.00;4840248;29;20050;-71
2021/12/11 09:21:44;;;;;;;28.00;10.45;;;;;;;-5.77;42.54;101346.75;4809846;29;20041;-71
2021/12/11 09:24:17;;;;;;;30.63;11.90;;;;;;;-5.87;42.46;101338.00;4809082;29;20105;-66
2021/12/11 09:27:14;;;;;;;20.40;7.60;;;;;;;-5.74;41.50;101336.16;4821757;29;20460;-68
2021/12/11 09:30:22;;;;;;;23.30;9.48;;;;;;;-6.01;42.67;101348.59;4818071;29;20069;-66
2021/12/11 09:33:05;;;;;;;10.00;4.00;;;;;;;-5.71;41.88;101342.28;4817180;29;20054;-66
2021/12/11 09:35:39;;;;;;;16.05;5.15;;;;;;;-5.20;40.98;101336.75;4796439;29;20053;-65
2021/12/11 09:38:14;;;;;;;20.17;8.60;;;;;;;-4.95;40.28;101340.94;4793200;29;20429;-66
2021/12/11 09:40:40;;;;;;;12.10;5.47;;;;;;;-5.02;39.70;101307.59;4827824;29;20050;-67
2021/12/11 09:43:06;;;;;;;22.63;8.10;;;;;;;-5.29;40.93;101329.78;4833987;29;20387;-71
2021/12/11 09:45:41;;;;;;;17.25;7.38;;;;;;;-4.74;39.89;101329.34;4830583;29;20066;-74
2021/12/11 09:48:16;;;;;;;18.48;7.65;;;;;;;-5.12;40.18;101300.66;4804308;29;20042;-67
2021/12/11 09:50:50;;;;;;;25.17;10.13;;;;;;;-5.48;40.92;101322.88;4820156;29;20050;-65
2021/12/11 09:53:19;;;;;;;35.33;11.23;;;;;;;-5.32;41.08;101319.25;4805011;29;20144;-68
2021/12/11 09:55:47;;;;;;;31.38;11.43;;;;;;;-5.16;40.83;101326.16;4820161;29;20054;-66
2021/12/11 09:58:19;;;;;;;21.13;8.68;;;;;;;-5.47;41.39;101308.81;4828059;29;20053;-67
2021/12/11 10:00:58;;;;;;;25.30;8.02;;;;;;;-5.44;41.55;101319.34;4827684;29;20542;-65
2021/12/11 10:03:29;;;;;;;26.60;10.48;;;;;;;-4.36;40.04;101314.91;4815327;29;20057;-66
2021/12/11 10:06:12;;;;;;;25.85;9.48;;;;;;;-4.92;40.03;101317.19;4818870;29;20468;-66
2021/12/11 10:08:42;;;;;;;27.83;8.65;;;;;;;-5.21;40.55;101280.50;4825359;29;20056;-66
2021/12/11 10:11:30;;;;;;;19.20;6.70;;;;;;;-5.51;41.60;101312.34;4805549;29;20069;-67
2021/12/11 10:14:04;;;;;;;26.83;9.35;;;;;;;-5.13;40.99;101312.97;4833586;29;20144;-66
2021/12/11 10:16:37;;;;;;;17.60;6.47;;;;;;;-5.34;40.86;101307.84;4827204;29;20141;-67
2021/12/11 10:19:04;;;;;;;25.73;9.10;;;;;;;-5.67;41.87;101301.00;4823604;29;20042;-67
2021/12/11 10:21:39;;;;;;;22.90;9.20;;;;;;;-5.56;42.07;101309.72;4818472;29;20050;-68
2021/12/11 10:24:10;;;;;;;18.77;7.32;;;;;;;-5.38;41.81;101304.34;4826472;29;20046;-66
2021/12/11 10:26:36;;;;;;;22.88;8.40;;;;;;;-5.74;41.60;101310.72;4824366;29;20202;-67
2021/12/11 10:29:05;;;;;;;21.20;6.72;;;;;;;-6.00;42.51;101323.16;4817588;29;20050;-67
2021/12/11 10:31:43;;;;;;;33.47;11.48;;;;;;;-5.73;42.16;101311.59;4818783;29;20381;-68
2021/12/11 10:34:15;;;;;;;21.35;8.55;;;;;;;-5.63;42.28;101319.44;4829325;29;20153;-67
2021/12/11 10:36:46;;;;;;;22.10;8.30;;;;;;;-5.56;42.02;101293.91;4832071;29;20800;-67
2021/12/11 10:39:14;;;;;;;33.17;10.50;;;;;;;-5.74;42.65;101304.56;4815731;29;20479;-66
2021/12/11 10:41:41;;;;;;;28.90;8.93;;;;;;;-5.86;42.24;101294.97;4822476;29;20068;-67
2021/12/11 10:44:16;;;;;;;22.63;8.18;;;;;;;-5.64;42.15;101301.88;4827378;29;20333;-67
2021/12/11 10:46:59;;;;;;;19.52;8.48;;;;;;;-5.29;40.95;101284.97;4808027;29;20084;-67
2021/12/11 10:49:25;;;;;;;25.13;8.73;;;;;;;-5.15;41.91;101296.28;4833391;29;20114;-71
2021/12/11 10:52:03;;;;;;;16.83;7.38;;;;;;;-6.02;43.75;101278.41;4826455;29;20041;-66
2021/12/11 10:54:29;;;;;;;24.83;9.02;;;;;;;-5.81;41.78;101243.19;4821481;29;20054;-67
2021/12/11 10:56:55;;;;;;;19.02;6.68;;;;;;;-5.96;42.21;101272.22;4823287;29;20126;-66
2021/12/11 10:59:29;;;;;;;21.70;9.10;;;;;;;-5.90;42.69;101288.84;4797363;29;20069;-73
2021/12/11 11:02:03;;;;;;;13.63;4.55;;;;;;;-6.49;43.28;101254.91;4821938;29;20156;-68
2021/12/11 11:04:36;;;;;;;17.25;7.22;;;;;;;-6.50;43.06;101247.91;4823935;29;20369;-69
2021/12/11 11:07:03;;;;;;;17.67;6.78;;;;;;;-6.59;43.95;101286.47;4808527;29;20041;-67
2021/12/11 11:09:29;;;;;;;20.13;7.68;;;;;;;-6.39;43.95;101241.72;4830723;29;20057;-72
2021/12/11 11:12:06;;;;;;;14.38;4.97;;;;;;;-6.81;44.13;101263.75;4823150;29;20414;-73
2021/12/11 11:14:32;;;;;;;15.52;5.85;;;;;;;-6.62;44.98;101275.09;4826690;29;20119;-71
2021/12/11 11:17:02;;;;;;;21.48;6.72;;;;;;;-6.63;44.65;101274.22;4817775;29;20050;-74
2021/12/11 11:19:29;;;;;;;19.17;8.02;;;;;;;-6.57;44.81;101262.81;4834075;29;20061;-74
2021/12/11 11:22:00;;;;;;;18.42;6.85;;;;;;;-6.29;43.86;101267.97;4825446;29;20035;-69
2021/12/11 11:24:34;;;;;;;18.25;6.85;;;;;;;-6.24;44.02;101272.38;4805741;29;20419;-75
2021/12/11 11:27:01;;;;;;;14.50;5.25;;;;;;;-6.15;43.66;101260.91;4824383;29;20564;-71
2021/12/11 11:29:28;;;;;;;20.33;7.70;;;;;;;-5.46;42.86;101273.66;4812929;29;20050;-67
2021/12/11 11:31:57;;;;;;;19.50;8.07;;;;;;;-6.07;42.76;101248.59;4826518;29;20049;-68
2021/12/11 11:34:26;;;;;;;15.48;5.70;;;;;;;-6.07;43.21;101260.03;4831318;29;20050;-65
2021/12/11 11:36:53;;;;;;;22.35;9.02;;;;;;;-6.70;44.49;101251.44;4821491;29;20117;-73
2021/12/11 11:39:21;;;;;;;22.05;8.75;;;;;;;-5.94;44.60;101252.03;4810145;29;20120;-72
2021/12/11 11:41:52;;;;;;;20.52;8.15;;;;;;;-6.02;44.23;101261.75;4831054;29;20051;-72
2021/12/11 11:44:19;;;;;;;14.68;6.22;;;;;;;-6.52;44.58;101265.44;4798687;29;20050;-72
2021/12/11 11:46:47;;;;;;;21.40;8.95;;;;;;;-6.69;45.89;101263.75;4826553;29;20399;-73
2021/12/11 11:49:15;;;;;;;19.05;7.68;;;;;;;-7.46;46.61;101236.63;4823162;29;20045;-69
2021/12/11 11:51:46;;;;;;;17.92;7.80;;;;;;;-7.67;47.72;101255.88;4826686;29;20042;-73
2021/12/11 11:54:13;;;;;;;18.33;7.63;;;;;;;-8.80;50.87;101263.31;4827151;29;20077;-70
2021/12/11 11:56:45;;;;;;;18.95;7.85;;;;;;;-10.06;53.87;101254.34;4826832;29;20050;-75
2021/12/11 11:59:11;;;;;;;13.25;5.45;;;;;;;-10.96;57.77;101267.16;4827550;29;20110;-75
2021/12/11 12:01:48;;;;;;;20.40;7.72;;;;;;;-11.38;59.60;101269.97;4834441;29;20117;-73